logo
Search for airport 
image banner adimage banner adimage banner ad
image banner ad

MMMGR - Margaritas

Located in Zaragoza, Mexico

ICAO - , IATA -

Data provided by Airmate  

General information

Coordinates: N28°41'2" W101°46'48"
Elevation is 2870 feet MSL.
Magnetic variation is 5° East
View others Airports in Coahuila

Operational data

Special qualification required
Current time UTC:
Current local time:
Weather at : - ( 0 km )
METAR: LWSK 180750Z 01003KT 270V080 9999 FEW023 SCT100 11/06 Q1007 NOSIG
View NOTAMs / SUP AIP / TFR affecting this airport [VIEW]
Communications frequencies: [VIEW]

Runways:

RWY identifierQFULength (ft)Width (ft)SurfaceLDA (ft)
22229°51330ASPH
0449°51330ASPH

Airport contact information

Address: Zaragoza Mexico

Satellite view of MMMGR